sensor_id;sensor_type;location;lat;lon;timestamp;pressure;altitude;pressure_sealevel;temperature;humidity
68891;BME280;55932;48.702;8.884;2023-03-01T00:02:41;96800;;;-4.1;66
68891;BME280;55932;48.702;8.884;2023-03-01T00:04:58;96800;;;-4.1;66
68891;BME280;55932;48.702;8.884;2023-03-01T00:07:29;96800;;;-4.1;66
68891;BME280;55932;48.702;8.884;2023-03-01T00:12:22;96800;;;-4.1;66
68891;BME280;55932;48.702;8.884;2023-03-01T00:14:53;96790;;;-4.1;66
68891;BME280;55932;48.702;8.884;2023-03-01T00:17:24;96800;;;-4.2;66
68891;BME280;55932;48.702;8.884;2023-03-01T00:24:50;96800;;;-4.4;66
68891;BME280;55932;48.702;8.884;2023-03-01T00:27:21;96800;;;-4.4;66
68891;BME280;55932;48.702;8.884;2023-03-01T00:29:52;96800;;;-4.3;65.5
68891;BME280;55932;48.702;8.884;2023-03-01T00:32:23;96800;;;-4.3;65.5
68891;BME280;55932;48.702;8.884;2023-03-01T00:34:53;96800;;;-4.4;66
68891;BME280;55932;48.702;8.884;2023-03-01T00:37:24;96800;;;-4.4;66
68891;BME280;55932;48.702;8.884;2023-03-01T00:39:55;96790;;;-4.5;66
68891;BME280;55932;48.702;8.884;2023-03-01T00:42:26;96790;;;-4.5;66
68891;BME280;55932;48.702;8.884;2023-03-01T00:44:56;96790;;;-4.5;66
68891;BME280;55932;48.702;8.884;2023-03-01T00:54:59;96790;;;-4.7;66
68891;BME280;55932;48.702;8.884;2023-03-01T00:57:37;96790;;;-4.8;66
68891;BME280;55932;48.702;8.884;2023-03-01T01:02:40;96790;;;-4.8;66
68891;BME280;55932;48.702;8.884;2023-03-01T01:07:40;96780;;;-4.8;66
68891;BME280;55932;48.702;8.884;2023-03-01T01:10:10;96780;;;-4.7;66
68891;BME280;55932;48.702;8.884;2023-03-01T01:12:42;96780;;;-4.6;66
68891;BME280;55932;48.702;8.884;2023-03-01T01:22:52;96770;;;-4.7;66
68891;BME280;55932;48.702;8.884;2023-03-01T01:25:22;96770;;;-4.7;66
68891;BME280;55932;48.702;8.884;2023-03-01T01:30:22;96760;;;-4.5;66
68891;BME280;55932;48.702;8.884;2023-03-01T01:32:48;96770;;;-4.2;65.5
68891;BME280;55932;48.702;8.884;2023-03-01T01:35:18;96760;;;-4.1;65.5
68891;BME280;55932;48.702;8.884;2023-03-01T01:42:44;96750;;;-3.8;65.5
68891;BME280;55932;48.702;8.884;2023-03-01T01:45:24;96750;;;-3.8;65.5
68891;BME280;55932;48.702;8.884;2023-03-01T01:47:45;96750;;;-3.9;66
68891;BME280;55932;48.702;8.884;2023-03-01T01:50:16;96750;;;-3.8;66
68891;BME280;55932;48.702;8.884;2023-03-01T01:52:47;96740;;;-3.9;66
68891;BME280;55932;48.702;8.884;2023-03-01T01:55:18;96750;;;-4;66
68891;BME280;55932;48.702;8.884;2023-03-01T01:57:49;96750;;;-4;66
68891;BME280;55932;48.702;8.884;2023-03-01T02:00:20;96740;;;-4;66
68891;BME280;55932;48.702;8.884;2023-03-01T02:02:59;96740;;;-4.1;66
68891;BME280;55932;48.702;8.884;2023-03-01T02:05:33;96740;;;-4.1;66
68891;BME280;55932;48.702;8.884;2023-03-01T02:07:58;96730;;;-4.2;66
68891;BME280;55932;48.702;8.884;2023-03-01T02:10:36;96740;;;-4.2;66
68891;BME280;55932;48.702;8.884;2023-03-01T02:13:13;96730;;;-4.2;66
68891;BME280;55932;48.702;8.884;2023-03-01T02:15:50;96730;;;-4.2;66
68891;BME280;55932;48.702;8.884;2023-03-01T02:20:34;96730;;;-4.4;66
68891;BME280;55932;48.702;8.884;2023-03-01T02:23:02;96730;;;-4.3;66
68891;BME280;55932;48.702;8.884;2023-03-01T02:26:06;96730;;;-4.3;66
68891;BME280;55932;48.702;8.884;2023-03-01T02:28:36;96720;;;-4.2;66
68891;BME280;55932;48.702;8.884;2023-03-01T02:30:35;96720;;;-4.1;66
68891;BME280;55932;48.702;8.884;2023-03-01T02:33:07;96710;;;-3.8;65.5
68891;BME280;55932;48.702;8.884;2023-03-01T02:35:37;96700;;;-3.5;65.5
68891;BME280;55932;48.702;8.884;2023-03-01T02:38:07;96700;;;-3.3;65
68891;BME280;55932;48.702;8.884;2023-03-01T02:40:38;96700;;;-3;65
68891;BME280;55932;48.702;8.884;2023-03-01T02:45:33;96690;;;-2.8;65
68891;BME280;55932;48.702;8.884;2023-03-01T02:48:04;96690;;;-2.7;65
68891;BME280;55932;48.702;8.884;2023-03-01T02:50:43;96690;;;-2.7;65
68891;BME280;55932;48.702;8.884;2023-03-01T02:53:08;96690;;;-2.6;65
68891;BME280;55932;48.702;8.884;2023-03-01T02:55:37;96680;;;-2.6;65
68891;BME280;55932;48.702;8.884;2023-03-01T02:58:07;96680;;;-2.5;65
68891;BME280;55932;48.702;8.884;2023-03-01T03:00:39;96680;;;-2.3;65
68891;BME280;55932;48.702;8.884;2023-03-01T03:03:08;96670;;;-2.3;65
68891;BME280;55932;48.702;8.884;2023-03-01T03:05:39;96680;;;-2.4;65
68891;BME280;55932;48.702;8.884;2023-03-01T03:08:10;96680;;;-2.4;65
68891;BME280;55932;48.702;8.884;2023-03-01T03:10:54;96670;;;-2.3;65
68891;BME280;55932;48.702;8.884;2023-03-01T03:13:24;96670;;;-2.3;65
68891;BME280;55932;48.702;8.884;2023-03-01T03:15:55;96660;;;-2.3;65
68891;BME280;55932;48.702;8.884;2023-03-01T03:18:25;96660;;;-2.3;65
68891;BME280;55932;48.702;8.884;2023-03-01T03:23:21;96660;;;-2.2;65
68891;BME280;55932;48.702;8.884;2023-03-01T03:28:29;96650;;;-2;65
68891;BME280;55932;48.702;8.884;2023-03-01T03:30:59;96660;;;-1.9;64.5
68891;BME280;55932;48.702;8.884;2023-03-01T03:35:53;96660;;;-2;65
68891;BME280;55932;48.702;8.884;2023-03-01T03:38:24;96650;;;-1.9;65
68891;BME280;55932;48.702;8.884;2023-03-01T03:41:03;96660;;;-2;65
68891;BME280;55932;48.702;8.884;2023-03-01T03:43:33;96650;;;-2;65
68891;BME280;55932;48.702;8.884;2023-03-01T03:46:04;96650;;;-1.9;65
68891;BME280;55932;48.702;8.884;2023-03-01T03:48:34;96650;;;-1.9;65
68891;BME280;55932;48.702;8.884;2023-03-01T03:51:04;96650;;;-1.7;65
68891;BME280;55932;48.702;8.884;2023-03-01T03:55:57;96650;;;-1.8;65
68891;BME280;55932;48.702;8.884;2023-03-01T03:58:28;96650;;;-1.7;65
68891;BME280;55932;48.702;8.884;2023-03-01T04:00:59;96650;;;-1.6;65
68891;BME280;55932;48.702;8.884;2023-03-01T04:03:31;96650;;;-1.6;65
68891;BME280;55932;48.702;8.884;2023-03-01T04:06:08;96640;;;-1.7;65
68891;BME280;55932;48.702;8.884;2023-03-01T04:08:48;96640;;;-1.7;65
68891;BME280;55932;48.702;8.884;2023-03-01T04:11:16;96630;;;-1.7;65.5
68891;BME280;55932;48.702;8.884;2023-03-01T04:16:04;96630;;;-1.7;65.5
68891;BME280;55932;48.702;8.884;2023-03-01T04:18:34;96630;;;-1.6;65.5
68891;BME280;55932;48.702;8.884;2023-03-01T04:23:29;96630;;;-1.7;65.5
68891;BME280;55932;48.702;8.884;2023-03-01T04:26:00;96630;;;-1.6;65.5
68891;BME280;55932;48.702;8.884;2023-03-01T04:28:32;96630;;;-1.5;65
68891;BME280;55932;48.702;8.884;2023-03-01T04:38:35;96620;;;-1.6;65.5
68891;BME280;55932;48.702;8.884;2023-03-01T04:41:05;96620;;;-1.6;65.5
68891;BME280;55932;48.702;8.884;2023-03-01T04:43:36;96630;;;-1.6;65.5
68891;BME280;55932;48.702;8.884;2023-03-01T04:48:44;96620;;;-1.6;65.5
68891;BME280;55932;48.702;8.884;2023-03-01T04:51:14;96620;;;-1.5;65.5
68891;BME280;55932;48.702;8.884;2023-03-01T04:53:45;96620;;;-1.5;65.5
68891;BME280;55932;48.702;8.884;2023-03-01T04:56:16;96620;;;-1.5;65.5
68891;BME280;55932;48.702;8.884;2023-03-01T04:58:47;96620;;;-1.5;65.5
68891;BME280;55932;48.702;8.884;2023-03-01T05:06:14;96620;;;-1.3;65
68891;BME280;55932;48.702;8.884;2023-03-01T05:08:44;96620;;;-1.3;65
68891;BME280;55932;48.702;8.884;2023-03-01T05:11:14;96620;;;-1.2;65
68891;BME280;55932;48.702;8.884;2023-03-01T05:13:46;96620;;;-1.3;65
68891;BME280;55932;48.702;8.884;2023-03-01T05:16:16;96620;;;-1.3;65
68891;BME280;55932;48.702;8.884;2023-03-01T05:18:47;96620;;;-1.3;65
68891;BME280;55932;48.702;8.884;2023-03-01T05:21:18;96610;;;-1.2;65
68891;BME280;55932;48.702;8.884;2023-03-01T05:23:48;96610;;;-1.2;65
68891;BME280;55932;48.702;8.884;2023-03-01T05:26:20;96610;;;-1.3;65
68891;BME280;55932;48.702;8.884;2023-03-01T05:28:57;96610;;;-1.3;65
68891;BME280;55932;48.702;8.884;2023-03-01T05:31:28;96620;;;-1.3;65
68891;BME280;55932;48.702;8.884;2023-03-01T05:34:09;96610;;;-1.3;65
68891;BME280;55932;48.702;8.884;2023-03-01T05:36:36;96620;;;-1.4;65
68891;BME280;55932;48.702;8.884;2023-03-01T05:44:09;96630;;;-1.3;65
68891;BME280;55932;48.702;8.884;2023-03-01T05:46:39;96620;;;-1.3;65
68891;BME280;55932;48.702;8.884;2023-03-01T05:51:33;96620;;;-1.3;65
68891;BME280;55932;48.702;8.884;2023-03-01T05:54:04;96620;;;-1.3;65
68891;BME280;55932;48.702;8.884;2023-03-01T05:56:35;96610;;;-1.3;65
68891;BME280;55932;48.702;8.884;2023-03-01T06:01:44;96610;;;-1.3;65.5
68891;BME280;55932;48.702;8.884;2023-03-01T06:09:16;96610;;;-1.1;65
68891;BME280;55932;48.702;8.884;2023-03-01T06:11:46;96600;;;-1.1;65
68891;BME280;55932;48.702;8.884;2023-03-01T06:16:40;96610;;;-1.1;65
68891;BME280;55932;48.702;8.884;2023-03-01T06:19:11;96610;;;-1.2;65.5
68891;BME280;55932;48.702;8.884;2023-03-01T06:21:42;96600;;;-1.1;65
68891;BME280;55932;48.702;8.884;2023-03-01T06:29:08;96610;;;-0.9;65
68891;BME280;55932;48.702;8.884;2023-03-01T06:31:39;96600;;;-1;65
68891;BME280;55932;48.702;8.884;2023-03-01T06:34:10;96600;;;-1.1;65
68891;BME280;55932;48.702;8.884;2023-03-01T06:36:41;96600;;;-1;65
68891;BME280;55932;48.702;8.884;2023-03-01T06:39:11;96590;;;-0.9;65
68891;BME280;55932;48.702;8.884;2023-03-01T06:41:42;96600;;;-0.9;65
68891;BME280;55932;48.702;8.884;2023-03-01T06:44:13;96600;;;-0.9;65
68891;BME280;55932;48.702;8.884;2023-03-01T06:46:44;96590;;;-0.8;65
68891;BME280;55932;48.702;8.884;2023-03-01T06:49:14;96590;;;-0.8;65
68891;BME280;55932;48.702;8.884;2023-03-01T06:51:51;96590;;;-0.8;65
68891;BME280;55932;48.702;8.884;2023-03-01T06:54:23;96590;;;-0.8;65
68891;BME280;55932;48.702;8.884;2023-03-01T06:57:00;96590;;;-0.8;65
68891;BME280;55932;48.702;8.884;2023-03-01T07:04:32;96590;;;-0.9;65.5
68891;BME280;55932;48.702;8.884;2023-03-01T07:12:03;96580;;;0.6;64
68891;BME280;55932;48.702;8.884;2023-03-01T07:19:34;96580;;;0.8;64.5
68891;BME280;55932;48.702;8.884;2023-03-01T07:24:34;96570;;;1.7;63
68891;BME280;55932;48.702;8.884;2023-03-01T07:27:05;96580;;;1.6;63.5
68891;BME280;55932;48.702;8.884;2023-03-01T07:31:59;96570;;;1;64.5
68891;BME280;55932;48.702;8.884;2023-03-01T07:34:30;96560;;;1.1;64.5
68891;BME280;55932;48.702;8.884;2023-03-01T07:37:07;96560;;;1.4;64
68891;BME280;55932;48.702;8.884;2023-03-01T07:44:40;96560;;;0.8;64.5
68891;BME280;55932;48.702;8.884;2023-03-01T07:47:10;96560;;;0.9;64.5
68891;BME280;55932;48.702;8.884;2023-03-01T07:52:04;96550;;;2;63
68891;BME280;55932;48.702;8.884;2023-03-01T07:54:35;96550;;;3.1;61.5
68891;BME280;55932;48.702;8.884;2023-03-01T07:57:07;96540;;;2.8;62.5
68891;BME280;55932;48.702;8.884;2023-03-01T07:59:37;96550;;;2.9;62.5
68891;BME280;55932;48.702;8.884;2023-03-01T08:02:09;96550;;;2.3;63.5
68891;BME280;55932;48.702;8.884;2023-03-01T08:04:46;96550;;;1.9;64.5
68891;BME280;55932;48.702;8.884;2023-03-01T08:12:33;96540;;;1.2;65
68891;BME280;55932;48.702;8.884;2023-03-01T08:14:48;96540;;;1.1;64.5
68891;BME280;55932;48.702;8.884;2023-03-01T08:17:18;96550;;;1.2;64.5
68891;BME280;55932;48.702;8.884;2023-03-01T08:22:12;96540;;;1.7;64
68891;BME280;55932;48.702;8.884;2023-03-01T08:24:43;96540;;;1.9;63.5
68891;BME280;55932;48.702;8.884;2023-03-01T08:27:15;96540;;;2;63
68891;BME280;55932;48.702;8.884;2023-03-01T08:29:45;96540;;;2.1;63
68891;BME280;55932;48.702;8.884;2023-03-01T08:32:23;96540;;;2.2;63
68891;BME280;55932;48.702;8.884;2023-03-01T08:34:59;96540;;;2.8;62
68891;BME280;55932;48.702;8.884;2023-03-01T08:39:47;96530;;;3.1;62
68891;BME280;55932;48.702;8.884;2023-03-01T08:42:18;96540;;;2.8;62.5
68891;BME280;55932;48.702;8.884;2023-03-01T08:47:13;96530;;;2;64
68891;BME280;55932;48.702;8.884;2023-03-01T08:49:44;96540;;;2.3;64.5
68891;BME280;55932;48.702;8.884;2023-03-01T08:57:17;96530;;;3.8;63
68891;BME280;55932;48.702;8.884;2023-03-01T08:59:47;96520;;;4.2;63.5
68891;BME280;55932;48.702;8.884;2023-03-01T09:02:18;96510;;;4.8;63
68891;BME280;55932;48.702;8.884;2023-03-01T09:04:56;96500;;;5.7;62.5
68891;BME280;55932;48.702;8.884;2023-03-01T09:07:28;96500;;;5.9;62.5
68891;BME280;55932;48.702;8.884;2023-03-01T09:09:58;96510;;;6.5;62
68891;BME280;55932;48.702;8.884;2023-03-01T09:12:21;96510;;;6.8;62
68891;BME280;55932;48.702;8.884;2023-03-01T09:14:52;96500;;;7.5;61.5
68891;BME280;55932;48.702;8.884;2023-03-01T09:17:23;96490;;;8.2;60.5
68891;BME280;55932;48.702;8.884;2023-03-01T09:19:53;96490;;;7.4;61.5
68891;BME280;55932;48.702;8.884;2023-03-01T09:27:26;96470;;;8.6;61
68891;BME280;55932;48.702;8.884;2023-03-01T09:32:40;96460;;;9;60
68891;BME280;55932;48.702;8.884;2023-03-01T09:35:11;96460;;;8.9;61
68891;BME280;55932;48.702;8.884;2023-03-01T09:38:00;96460;;;9.8;60.5
68891;BME280;55932;48.702;8.884;2023-03-01T09:40:24;96460;;;10;60
68891;BME280;55932;48.702;8.884;2023-03-01T09:42:49;96480;;;9.5;61
68891;BME280;55932;48.702;8.884;2023-03-01T09:47:42;96470;;;9.8;61.5
68891;BME280;55932;48.702;8.884;2023-03-01T09:50:16;96470;;;9.7;61.5
68891;BME280;55932;48.702;8.884;2023-03-01T09:52:48;96460;;;9.9;61
68891;BME280;55932;48.702;8.884;2023-03-01T09:55:14;96460;;;10.6;61
68891;BME280;55932;48.702;8.884;2023-03-01T10:00:18;96460;;;10;61.5
68891;BME280;55932;48.702;8.884;2023-03-01T10:02:42;96470;;;9.7;62
68891;BME280;55932;48.702;8.884;2023-03-01T10:10:32;96460;;;10.3;62
68891;BME280;55932;48.702;8.884;2023-03-01T10:13:03;96450;;;10.8;61
68891;BME280;55932;48.702;8.884;2023-03-01T10:15:18;96460;;;10.2;62.5
68891;BME280;55932;48.702;8.884;2023-03-01T10:20:17;96440;;;10.4;62
68891;BME280;55932;48.702;8.884;2023-03-01T10:22:48;96440;;;10.6;62.5
68891;BME280;55932;48.702;8.884;2023-03-01T10:26:30;96440;;;10.5;62
68891;BME280;55932;48.702;8.884;2023-03-01T10:27:53;96440;;;10.6;62.5
68891;BME280;55932;48.702;8.884;2023-03-01T10:35:19;96430;;;9.5;62.5
68891;BME280;55932;48.702;8.884;2023-03-01T10:37:46;96430;;;9.4;63
68891;BME280;55932;48.702;8.884;2023-03-01T10:40:12;96430;;;9.2;63.5
68891;BME280;55932;48.702;8.884;2023-03-01T10:42:47;96430;;;9.5;64
68891;BME280;55932;48.702;8.884;2023-03-01T10:45:15;96420;;;9.7;64
68891;BME280;55932;48.702;8.884;2023-03-01T10:47:44;96420;;;10.4;64
68891;BME280;55932;48.702;8.884;2023-03-01T10:50:19;96420;;;10.6;63.5
68891;BME280;55932;48.702;8.884;2023-03-01T10:52:55;96420;;;10.6;63.5
68891;BME280;55932;48.702;8.884;2023-03-01T10:55:23;96420;;;11.4;63
68891;BME280;55932;48.702;8.884;2023-03-01T10:58:25;96420;;;12;62
68891;BME280;55932;48.702;8.884;2023-03-01T11:00:31;96410;;;11.1;62.5
68891;BME280;55932;48.702;8.884;2023-03-01T11:05:26;96400;;;11.4;63
68891;BME280;55932;48.702;8.884;2023-03-01T11:07:58;96400;;;11.4;63.5
68891;BME280;55932;48.702;8.884;2023-03-01T11:10:30;96400;;;11.5;63.5
68891;BME280;55932;48.702;8.884;2023-03-01T11:13:16;96390;;;11.3;63
68891;BME280;55932;48.702;8.884;2023-03-01T11:15:31;96380;;;10.8;64
68891;BME280;55932;48.702;8.884;2023-03-01T11:20:34;96380;;;10.4;64.5
68891;BME280;55932;48.702;8.884;2023-03-01T11:22:58;96370;;;10.6;64
68891;BME280;55932;48.702;8.884;2023-03-01T11:33:11;96370;;;10.3;64.5
68891;BME280;55932;48.702;8.884;2023-03-01T11:35:31;96360;;;11;64
68891;BME280;55932;48.702;8.884;2023-03-01T11:38:05;96360;;;11.2;63.5
68891;BME280;55932;48.702;8.884;2023-03-01T11:40:33;96360;;;10.9;63.5
68891;BME280;55932;48.702;8.884;2023-03-01T11:48:29;96350;;;10.7;64
68891;BME280;55932;48.702;8.884;2023-03-01T11:50:44;96340;;;10.5;64.5
68891;BME280;55932;48.702;8.884;2023-03-01T11:53:18;96330;;;11.1;64
68891;BME280;55932;48.702;8.884;2023-03-01T11:55:47;96340;;;11.3;63.5
68891;BME280;55932;48.702;8.884;2023-03-01T12:03:30;96330;;;10.8;64
68891;BME280;55932;48.702;8.884;2023-03-01T12:06:14;96330;;;11.1;64.5
68891;BME280;55932;48.702;8.884;2023-03-01T12:10:57;96310;;;11.1;64
68891;BME280;55932;48.702;8.884;2023-03-01T12:20:53;96300;;;10.2;65
68891;BME280;55932;48.702;8.884;2023-03-01T12:23:32;96300;;;10.6;64.5
68891;BME280;55932;48.702;8.884;2023-03-01T12:25:58;96290;;;10.7;64.5
68891;BME280;55932;48.702;8.884;2023-03-01T12:28:25;96290;;;11;64
68891;BME280;55932;48.702;8.884;2023-03-01T12:31:16;96280;;;11.6;63.5
68891;BME280;55932;48.702;8.884;2023-03-01T12:33:36;96280;;;11.7;63
68891;BME280;55932;48.702;8.884;2023-03-01T12:38:31;96270;;;11.9;63
68891;BME280;55932;48.702;8.884;2023-03-01T12:40:53;96270;;;11.6;63.5
68891;BME280;55932;48.702;8.884;2023-03-01T12:45:57;96260;;;11.1;64
68891;BME280;55932;48.702;8.884;2023-03-01T12:48:24;96260;;;10.9;64.5
68891;BME280;55932;48.702;8.884;2023-03-01T12:50:52;96260;;;10.8;64.5
68891;BME280;55932;48.702;8.884;2023-03-01T12:53:24;96250;;;11.3;64
68891;BME280;55932;48.702;8.884;2023-03-01T13:06:17;96220;;;12.7;62
68891;BME280;55932;48.702;8.884;2023-03-01T13:08:40;96220;;;12.3;63
68891;BME280;55932;48.702;8.884;2023-03-01T13:11:15;96220;;;11.9;63.5
68891;BME280;55932;48.702;8.884;2023-03-01T13:18:33;96220;;;11.5;64
68891;BME280;55932;48.702;8.884;2023-03-01T13:21:04;96220;;;11.6;64
68891;BME280;55932;48.702;8.884;2023-03-01T13:23:37;96210;;;11.7;64
68891;BME280;55932;48.702;8.884;2023-03-01T13:26:14;96210;;;11.4;64
68891;BME280;55932;48.702;8.884;2023-03-01T13:28:51;96220;;;11.2;64
68891;BME280;55932;48.702;8.884;2023-03-01T13:33:45;96220;;;11.5;64
68891;BME280;55932;48.702;8.884;2023-03-01T13:36:09;96220;;;11.4;63.5
68891;BME280;55932;48.702;8.884;2023-03-01T13:38:44;96220;;;11.6;63.5
68891;BME280;55932;48.702;8.884;2023-03-01T13:41:10;96210;;;12.1;63
68891;BME280;55932;48.702;8.884;2023-03-01T13:43:42;96220;;;11.4;63.5
68891;BME280;55932;48.702;8.884;2023-03-01T13:46:15;96210;;;11.1;64
68891;BME280;55932;48.702;8.884;2023-03-01T13:48:47;96210;;;11.4;64
68891;BME280;55932;48.702;8.884;2023-03-01T13:51:14;96200;;;11.3;63.5
68891;BME280;55932;48.702;8.884;2023-03-01T13:53:51;96210;;;11.4;63.5
68891;BME280;55932;48.702;8.884;2023-03-01T13:58:44;96200;;;11;64
68891;BME280;55932;48.702;8.884;2023-03-01T14:01:20;96220;;;11.1;63.5
68891;BME280;55932;48.702;8.884;2023-03-01T14:03:42;96220;;;11;64
68891;BME280;55932;48.702;8.884;2023-03-01T14:06:15;96210;;;10.8;64
68891;BME280;55932;48.702;8.884;2023-03-01T14:08:44;96210;;;10.7;64
68891;BME280;55932;48.702;8.884;2023-03-01T14:13:48;96200;;;10.1;64.5
68891;BME280;55932;48.702;8.884;2023-03-01T14:16:19;96200;;;10.3;64
68891;BME280;55932;48.702;8.884;2023-03-01T14:26:20;96210;;;10.5;63.5
68891;BME280;55932;48.702;8.884;2023-03-01T14:34:25;96210;;;9.5;64.5
68891;BME280;55932;48.702;8.884;2023-03-01T14:36:34;96210;;;10;64
68891;BME280;55932;48.702;8.884;2023-03-01T14:41:27;96220;;;9.9;64
68891;BME280;55932;48.702;8.884;2023-03-01T14:44:04;96220;;;10;64
68891;BME280;55932;48.702;8.884;2023-03-01T14:46:32;96220;;;10.1;63.5
68891;BME280;55932;48.702;8.884;2023-03-01T14:51:25;96210;;;9.6;64
68891;BME280;55932;48.702;8.884;2023-03-01T14:53:55;96230;;;9.4;64
68891;BME280;55932;48.702;8.884;2023-03-01T14:56:26;96230;;;9.5;63.5
68891;BME280;55932;48.702;8.884;2023-03-01T15:06:29;96220;;;9.6;63
68891;BME280;55932;48.702;8.884;2023-03-01T15:09:00;96230;;;9.5;62.5
68891;BME280;55932;48.702;8.884;2023-03-01T15:14:40;96240;;;9;62
68891;BME280;55932;48.702;8.884;2023-03-01T15:16:39;96230;;;8.6;62
68891;BME280;55932;48.702;8.884;2023-03-01T15:19:15;96220;;;8.5;61.5
68891;BME280;55932;48.702;8.884;2023-03-01T15:21:40;96230;;;8.3;61
68891;BME280;55932;48.702;8.884;2023-03-01T15:31:58;96230;;;7.3;62
68891;BME280;55932;48.702;8.884;2023-03-01T15:34:34;96230;;;7.2;62.5
68891;BME280;55932;48.702;8.884;2023-03-01T15:36:50;96230;;;7.2;62.5
68891;BME280;55932;48.702;8.884;2023-03-01T15:39:36;96230;;;7.2;62.5
68891;BME280;55932;48.702;8.884;2023-03-01T15:41:50;96230;;;6.9;63
68891;BME280;55932;48.702;8.884;2023-03-01T15:46:45;96240;;;6.9;63
68891;BME280;55932;48.702;8.884;2023-03-01T15:49:46;96230;;;6.6;62.5
68891;BME280;55932;48.702;8.884;2023-03-01T15:51:47;96220;;;6.4;63
68891;BME280;55932;48.702;8.884;2023-03-01T15:59:31;96210;;;5.9;63
68891;BME280;55932;48.702;8.884;2023-03-01T16:01:55;96200;;;5.8;63
68891;BME280;55932;48.702;8.884;2023-03-01T16:04:25;96200;;;5.8;63
68891;BME280;55932;48.702;8.884;2023-03-01T16:06:55;96210;;;5.6;63.5
68891;BME280;55932;48.702;8.884;2023-03-01T16:09:25;96200;;;5.5;63.5
68891;BME280;55932;48.702;8.884;2023-03-01T16:11:55;96200;;;5.4;63.5
68891;BME280;55932;48.702;8.884;2023-03-01T16:14:20;96210;;;5.3;63.5
68891;BME280;55932;48.702;8.884;2023-03-01T16:16:56;96210;;;5.2;63.5
68891;BME280;55932;48.702;8.884;2023-03-01T16:21:52;96220;;;5.1;63.5
68891;BME280;55932;48.702;8.884;2023-03-01T16:24:23;96220;;;5;63.5
68891;BME280;55932;48.702;8.884;2023-03-01T16:29:31;96210;;;4.8;64
68891;BME280;55932;48.702;8.884;2023-03-01T16:32:02;96220;;;4.8;64
68891;BME280;55932;48.702;8.884;2023-03-01T16:36:56;96220;;;4.6;64
68891;BME280;55932;48.702;8.884;2023-03-01T16:41:59;96230;;;4.5;64
68891;BME280;55932;48.702;8.884;2023-03-01T16:47:00;96230;;;4.3;64
68891;BME280;55932;48.702;8.884;2023-03-01T16:52:07;96230;;;4.1;64
68891;BME280;55932;48.702;8.884;2023-03-01T16:54:37;96230;;;4;64.5
68891;BME280;55932;48.702;8.884;2023-03-01T16:57:02;96230;;;3.8;64.5
68891;BME280;55932;48.702;8.884;2023-03-01T16:59:32;96230;;;3.7;64.5
68891;BME280;55932;48.702;8.884;2023-03-01T17:02:04;96240;;;3.6;64.5
68891;BME280;55932;48.702;8.884;2023-03-01T17:04:34;96240;;;3.5;64.5
68891;BME280;55932;48.702;8.884;2023-03-01T17:07:12;96240;;;3.5;64.5
68891;BME280;55932;48.702;8.884;2023-03-01T17:09:48;96250;;;3.4;64.5
68891;BME280;55932;48.702;8.884;2023-03-01T17:14:36;96250;;;3.2;64.5
68891;BME280;55932;48.702;8.884;2023-03-01T17:17:08;96260;;;3.2;64.5
68891;BME280;55932;48.702;8.884;2023-03-01T17:19:38;96260;;;3.2;64.5
68891;BME280;55932;48.702;8.884;2023-03-01T17:24:33;96270;;;3.1;64.5
68891;BME280;55932;48.702;8.884;2023-03-01T17:27:04;96270;;;3.1;64.5
68891;BME280;55932;48.702;8.884;2023-03-01T17:29:34;96270;;;3;64.5
68891;BME280;55932;48.702;8.884;2023-03-01T17:32:05;96280;;;3;64.5
68891;BME280;55932;48.702;8.884;2023-03-01T17:34:36;96280;;;3;64.5
68891;BME280;55932;48.702;8.884;2023-03-01T17:37:10;96280;;;2.9;65
68891;BME280;55932;48.702;8.884;2023-03-01T17:39:44;96290;;;2.8;65
68891;BME280;55932;48.702;8.884;2023-03-01T17:42:15;96280;;;2.7;65
68891;BME280;55932;48.702;8.884;2023-03-01T17:44:45;96290;;;2.6;65
68891;BME280;55932;48.702;8.884;2023-03-01T17:49:40;96290;;;2.6;65
68891;BME280;55932;48.702;8.884;2023-03-01T17:52:12;96300;;;2.6;65
68891;BME280;55932;48.702;8.884;2023-03-01T17:59:44;96300;;;2.4;65
68891;BME280;55932;48.702;8.884;2023-03-01T18:02:15;96310;;;2.3;65
68891;BME280;55932;48.702;8.884;2023-03-01T18:04:45;96300;;;2.2;65
68891;BME280;55932;48.702;8.884;2023-03-01T18:07:16;96300;;;2.2;65
68891;BME280;55932;48.702;8.884;2023-03-01T18:12:31;96290;;;2.1;65
68891;BME280;55932;48.702;8.884;2023-03-01T18:15:00;96300;;;2.1;65
68891;BME280;55932;48.702;8.884;2023-03-01T18:19:55;96290;;;2;65
68891;BME280;55932;48.702;8.884;2023-03-01T18:22:26;96290;;;1.9;65
68891;BME280;55932;48.702;8.884;2023-03-01T18:25:04;96290;;;1.8;65
68891;BME280;55932;48.702;8.884;2023-03-01T18:29:52;96300;;;1.8;65
68891;BME280;55932;48.702;8.884;2023-03-01T18:32:23;96290;;;1.8;65
68891;BME280;55932;48.702;8.884;2023-03-01T18:34:54;96290;;;1.7;65
68891;BME280;55932;48.702;8.884;2023-03-01T18:37:25;96290;;;1.8;65
68891;BME280;55932;48.702;8.884;2023-03-01T18:39:55;96300;;;1.7;65
68891;BME280;55932;48.702;8.884;2023-03-01T18:42:26;96290;;;1.4;65.5
68891;BME280;55932;48.702;8.884;2023-03-01T18:44:57;96290;;;1.3;65.5
68891;BME280;55932;48.702;8.884;2023-03-01T18:47:41;96290;;;1.3;65.5
68891;BME280;55932;48.702;8.884;2023-03-01T18:50:12;96290;;;1.2;65.5
68891;BME280;55932;48.702;8.884;2023-03-01T18:52:42;96290;;;1.1;65.5
68891;BME280;55932;48.702;8.884;2023-03-01T18:57:36;96280;;;0.9;65.5
68891;BME280;55932;48.702;8.884;2023-03-01T19:00:06;96280;;;0.9;65.5
68891;BME280;55932;48.702;8.884;2023-03-01T19:02:37;96280;;;0.8;65.5
68891;BME280;55932;48.702;8.884;2023-03-01T19:05:01;96280;;;0.8;65.5
68891;BME280;55932;48.702;8.884;2023-03-01T19:07:32;96270;;;0.9;65
68891;BME280;55932;48.702;8.884;2023-03-01T19:10:04;96270;;;0.8;65.5
68891;BME280;55932;48.702;8.884;2023-03-01T19:12:34;96270;;;0.6;65.5
68891;BME280;55932;48.702;8.884;2023-03-01T19:20:06;96270;;;0.8;65
68891;BME280;55932;48.702;8.884;2023-03-01T19:22:37;96270;;;0.6;65.5
68891;BME280;55932;48.702;8.884;2023-03-01T19:33:06;96260;;;0.4;65.5
68891;BME280;55932;48.702;8.884;2023-03-01T19:35:23;96260;;;0.3;65.5
68891;BME280;55932;48.702;8.884;2023-03-01T19:40:23;96260;;;0.3;65
68891;BME280;55932;48.702;8.884;2023-03-01T19:42:53;96260;;;0.3;65
68891;BME280;55932;48.702;8.884;2023-03-01T19:47:47;96260;;;0;65.5
68891;BME280;55932;48.702;8.884;2023-03-01T19:50:18;96260;;;0;65.5
68891;BME280;55932;48.702;8.884;2023-03-01T19:52:56;96260;;;0.1;65
68891;BME280;55932;48.702;8.884;2023-03-01T19:57:45;96260;;;0.2;65
68891;BME280;55932;48.702;8.884;2023-03-01T20:00:15;96260;;;0.1;65.5
68891;BME280;55932;48.702;8.884;2023-03-01T20:02:46;96260;;;0.1;65.5